sensor_id;sensor_type;location;lat;lon;timestamp;P1;durP1;ratioP1;P2;durP2;ratioP2
77872;SDS011;67068;52.116;4.440;2023-09-07T00:00:17;8.48;;;4.15;;
77872;SDS011;67068;52.116;4.440;2023-09-07T00:02:42;7.73;;;3.30;;
77872;SDS011;67068;52.116;4.440;2023-09-07T00:05:08;9.47;;;3.70;;
77872;SDS011;67068;52.116;4.440;2023-09-07T00:07:33;8.00;;;3.28;;
77872;SDS011;67068;52.116;4.440;2023-09-07T00:09:58;8.70;;;3.63;;
77872;SDS011;67068;52.116;4.440;2023-09-07T00:12:24;8.57;;;3.75;;
77872;SDS011;67068;52.116;4.440;2023-09-07T00:14:50;8.35;;;3.50;;
77872;SDS011;67068;52.116;4.440;2023-09-07T00:17:15;8.38;;;3.47;;
77872;SDS011;67068;52.116;4.440;2023-09-07T00:19:40;8.60;;;3.37;;
77872;SDS011;67068;52.116;4.440;2023-09-07T00:22:06;9.10;;;3.60;;
77872;SDS011;67068;52.116;4.440;2023-09-07T00:24:31;8.50;;;3.50;;
77872;SDS011;67068;52.116;4.440;2023-09-07T00:26:56;8.67;;;3.80;;
77872;SDS011;67068;52.116;4.440;2023-09-07T00:29:22;8.60;;;3.47;;
77872;SDS011;67068;52.116;4.440;2023-09-07T00:31:47;8.37;;;3.43;;
77872;SDS011;67068;52.116;4.440;2023-09-07T00:34:12;8.13;;;3.40;;
77872;SDS011;67068;52.116;4.440;2023-09-07T00:36:37;9.00;;;3.43;;
77872;SDS011;67068;52.116;4.440;2023-09-07T00:39:03;8.70;;;3.58;;
77872;SDS011;67068;52.116;4.440;2023-09-07T00:41:28;8.75;;;3.75;;
77872;SDS011;67068;52.116;4.440;2023-09-07T00:43:53;8.17;;;3.50;;
77872;SDS011;67068;52.116;4.440;2023-09-07T00:46:19;8.60;;;3.90;;
77872;SDS011;67068;52.116;4.440;2023-09-07T00:48:45;8.40;;;3.67;;
77872;SDS011;67068;52.116;4.440;2023-09-07T00:51:10;8.47;;;3.63;;
77872;SDS011;67068;52.116;4.440;2023-09-07T00:53:36;8.20;;;3.60;;
77872;SDS011;67068;52.116;4.440;2023-09-07T00:56:01;8.98;;;4.05;;
77872;SDS011;67068;52.116;4.440;2023-09-07T00:58:27;8.27;;;3.58;;
77872;SDS011;67068;52.116;4.440;2023-09-07T01:00:52;7.85;;;3.42;;
77872;SDS011;67068;52.116;4.440;2023-09-07T01:03:17;8.02;;;3.45;;
77872;SDS011;67068;52.116;4.440;2023-09-07T01:05:46;8.80;;;3.57;;
77872;SDS011;67068;52.116;4.440;2023-09-07T01:08:15;8.85;;;3.83;;
77872;SDS011;67068;52.116;4.440;2023-09-07T01:10:43;8.70;;;3.53;;
77872;SDS011;67068;52.116;4.440;2023-09-07T01:13:08;8.57;;;3.57;;
77872;SDS011;67068;52.116;4.440;2023-09-07T01:15:33;8.40;;;4.00;;
77872;SDS011;67068;52.116;4.440;2023-09-07T01:17:58;8.63;;;3.97;;
77872;SDS011;67068;52.116;4.440;2023-09-07T01:20:24;8.65;;;3.88;;
77872;SDS011;67068;52.116;4.440;2023-09-07T01:22:50;8.82;;;3.50;;
77872;SDS011;67068;52.116;4.440;2023-09-07T01:25:15;8.30;;;3.37;;
77872;SDS011;67068;52.116;4.440;2023-09-07T01:27:41;8.65;;;3.55;;
77872;SDS011;67068;52.116;4.440;2023-09-07T01:30:06;9.07;;;3.40;;
77872;SDS011;67068;52.116;4.440;2023-09-07T01:32:32;7.88;;;3.15;;
77872;SDS011;67068;52.116;4.440;2023-09-07T01:34:57;8.77;;;3.57;;
77872;SDS011;67068;52.116;4.440;2023-09-07T01:37:23;8.38;;;3.63;;
77872;SDS011;67068;52.116;4.440;2023-09-07T01:39:48;8.70;;;3.63;;
77872;SDS011;67068;52.116;4.440;2023-09-07T01:42:14;8.70;;;3.53;;
77872;SDS011;67068;52.116;4.440;2023-09-07T01:44:39;8.17;;;3.30;;
77872;SDS011;67068;52.116;4.440;2023-09-07T01:47:04;9.87;;;4.10;;
77872;SDS011;67068;52.116;4.440;2023-09-07T01:49:29;7.67;;;3.20;;
77872;SDS011;67068;52.116;4.440;2023-09-07T01:51:55;9.45;;;3.72;;
77872;SDS011;67068;52.116;4.440;2023-09-07T01:54:23;7.83;;;3.40;;
77872;SDS011;67068;52.116;4.440;2023-09-07T01:56:48;8.43;;;3.75;;
77872;SDS011;67068;52.116;4.440;2023-09-07T01:59:13;8.73;;;3.83;;
77872;SDS011;67068;52.116;4.440;2023-09-07T02:01:39;9.03;;;3.87;;
77872;SDS011;67068;52.116;4.440;2023-09-07T02:04:05;8.80;;;3.85;;
77872;SDS011;67068;52.116;4.440;2023-09-07T02:06:30;8.70;;;3.83;;
77872;SDS011;67068;52.116;4.440;2023-09-07T02:08:56;9.07;;;3.70;;
77872;SDS011;67068;52.116;4.440;2023-09-07T02:11:21;7.60;;;3.17;;
77872;SDS011;67068;52.116;4.440;2023-09-07T02:13:47;8.30;;;3.50;;
77872;SDS011;67068;52.116;4.440;2023-09-07T02:16:12;8.30;;;3.45;;
77872;SDS011;67068;52.116;4.440;2023-09-07T02:18:38;8.68;;;3.47;;
77872;SDS011;67068;52.116;4.440;2023-09-07T02:21:05;8.63;;;3.70;;
77872;SDS011;67068;52.116;4.440;2023-09-07T02:23:31;9.82;;;3.78;;
77872;SDS011;67068;52.116;4.440;2023-09-07T02:25:56;8.15;;;3.40;;
77872;SDS011;67068;52.116;4.440;2023-09-07T02:28:22;8.88;;;3.88;;
77872;SDS011;67068;52.116;4.440;2023-09-07T02:30:47;8.02;;;3.45;;
77872;SDS011;67068;52.116;4.440;2023-09-07T02:33:13;10.33;;;3.70;;
77872;SDS011;67068;52.116;4.440;2023-09-07T02:35:38;8.17;;;3.50;;
77872;SDS011;67068;52.116;4.440;2023-09-07T02:38:03;10.15;;;4.05;;
77872;SDS011;67068;52.116;4.440;2023-09-07T02:40:29;8.77;;;3.63;;
77872;SDS011;67068;52.116;4.440;2023-09-07T02:42:54;9.03;;;3.90;;
77872;SDS011;67068;52.116;4.440;2023-09-07T02:45:19;8.40;;;3.97;;
77872;SDS011;67068;52.116;4.440;2023-09-07T02:47:44;9.03;;;3.90;;
77872;SDS011;67068;52.116;4.440;2023-09-07T02:50:11;8.57;;;3.83;;
77872;SDS011;67068;52.116;4.440;2023-09-07T02:52:36;9.00;;;3.60;;
77872;SDS011;67068;52.116;4.440;2023-09-07T02:55:02;8.90;;;3.97;;
77872;SDS011;67068;52.116;4.440;2023-09-07T02:57:29;9.80;;;3.80;;
77872;SDS011;67068;52.116;4.440;2023-09-07T02:59:54;8.53;;;3.80;;
77872;SDS011;67068;52.116;4.440;2023-09-07T03:02:19;8.67;;;3.83;;
77872;SDS011;67068;52.116;4.440;2023-09-07T03:04:44;8.77;;;3.50;;
77872;SDS011;67068;52.116;4.440;2023-09-07T03:07:10;9.37;;;4.23;;
77872;SDS011;67068;52.116;4.440;2023-09-07T03:09:35;8.57;;;4.10;;
77872;SDS011;67068;52.116;4.440;2023-09-07T03:12:00;8.97;;;3.97;;
77872;SDS011;67068;52.116;4.440;2023-09-07T03:14:25;8.20;;;3.83;;
77872;SDS011;67068;52.116;4.440;2023-09-07T03:16:51;9.20;;;4.00;;
77872;SDS011;67068;52.116;4.440;2023-09-07T03:19:16;8.30;;;3.77;;
77872;SDS011;67068;52.116;4.440;2023-09-07T03:21:41;8.73;;;4.23;;
77872;SDS011;67068;52.116;4.440;2023-09-07T03:24:07;9.10;;;4.18;;
77872;SDS011;67068;52.116;4.440;2023-09-07T03:26:32;8.93;;;4.20;;
77872;SDS011;67068;52.116;4.440;2023-09-07T03:28:57;7.90;;;3.33;;
77872;SDS011;67068;52.116;4.440;2023-09-07T03:31:22;8.23;;;4.00;;
77872;SDS011;67068;52.116;4.440;2023-09-07T03:33:48;8.17;;;3.67;;
77872;SDS011;67068;52.116;4.440;2023-09-07T03:36:14;8.52;;;4.03;;
77872;SDS011;67068;52.116;4.440;2023-09-07T03:38:40;8.50;;;3.22;;
77872;SDS011;67068;52.116;4.440;2023-09-07T03:41:05;9.10;;;3.97;;
77872;SDS011;67068;52.116;4.440;2023-09-07T03:43:30;9.50;;;3.73;;
77872;SDS011;67068;52.116;4.440;2023-09-07T03:45:56;9.23;;;3.73;;
77872;SDS011;67068;52.116;4.440;2023-09-07T03:48:22;8.30;;;3.70;;
77872;SDS011;67068;52.116;4.440;2023-09-07T03:50:47;9.40;;;4.03;;
77872;SDS011;67068;52.116;4.440;2023-09-07T03:53:12;9.40;;;4.30;;
77872;SDS011;67068;52.116;4.440;2023-09-07T03:55:41;8.53;;;3.60;;
77872;SDS011;67068;52.116;4.440;2023-09-07T03:58:07;9.30;;;4.18;;
77872;SDS011;67068;52.116;4.440;2023-09-07T04:00:32;8.30;;;3.47;;
77872;SDS011;67068;52.116;4.440;2023-09-07T04:02:57;8.13;;;3.50;;
77872;SDS011;67068;52.116;4.440;2023-09-07T04:05:23;8.57;;;3.83;;
77872;SDS011;67068;52.116;4.440;2023-09-07T04:07:50;8.60;;;4.03;;
77872;SDS011;67068;52.116;4.440;2023-09-07T04:10:15;9.60;;;3.97;;
77872;SDS011;67068;52.116;4.440;2023-09-07T04:12:40;9.47;;;3.90;;
77872;SDS011;67068;52.116;4.440;2023-09-07T04:15:05;7.97;;;3.37;;
77872;SDS011;67068;52.116;4.440;2023-09-07T04:17:31;8.93;;;4.03;;
77872;SDS011;67068;52.116;4.440;2023-09-07T04:20:05;7.88;;;3.78;;
77872;SDS011;67068;52.116;4.440;2023-09-07T04:22:30;7.88;;;3.67;;
77872;SDS011;67068;52.116;4.440;2023-09-07T04:24:55;8.37;;;3.70;;
77872;SDS011;67068;52.116;4.440;2023-09-07T04:27:20;8.50;;;3.70;;
77872;SDS011;67068;52.116;4.440;2023-09-07T04:29:46;8.80;;;3.65;;
77872;SDS011;67068;52.116;4.440;2023-09-07T04:32:12;8.50;;;3.63;;
77872;SDS011;67068;52.116;4.440;2023-09-07T04:34:37;9.53;;;4.13;;
77872;SDS011;67068;52.116;4.440;2023-09-07T04:37:02;8.43;;;4.10;;
77872;SDS011;67068;52.116;4.440;2023-09-07T04:39:27;8.20;;;3.60;;
77872;SDS011;67068;52.116;4.440;2023-09-07T04:41:53;9.90;;;4.17;;
77872;SDS011;67068;52.116;4.440;2023-09-07T04:44:18;8.40;;;3.63;;
77872;SDS011;67068;52.116;4.440;2023-09-07T04:46:44;8.43;;;3.95;;
77872;SDS011;67068;52.116;4.440;2023-09-07T04:49:09;7.97;;;3.67;;
77872;SDS011;67068;52.116;4.440;2023-09-07T04:51:34;8.20;;;3.53;;
77872;SDS011;67068;52.116;4.440;2023-09-07T04:53:59;8.30;;;3.33;;
77872;SDS011;67068;52.116;4.440;2023-09-07T04:56:25;9.43;;;3.63;;
77872;SDS011;67068;52.116;4.440;2023-09-07T04:58:50;8.90;;;3.95;;
77872;SDS011;67068;52.116;4.440;2023-09-07T05:01:16;9.10;;;3.83;;
77872;SDS011;67068;52.116;4.440;2023-09-07T05:03:41;7.60;;;3.60;;
77872;SDS011;67068;52.116;4.440;2023-09-07T05:06:06;7.60;;;3.80;;
77872;SDS011;67068;52.116;4.440;2023-09-07T05:08:31;8.13;;;3.60;;
77872;SDS011;67068;52.116;4.440;2023-09-07T05:11:00;8.17;;;3.53;;
77872;SDS011;67068;52.116;4.440;2023-09-07T05:13:26;7.88;;;3.50;;
77872;SDS011;67068;52.116;4.440;2023-09-07T05:15:52;8.50;;;3.92;;
77872;SDS011;67068;52.116;4.440;2023-09-07T05:18:17;8.32;;;3.75;;
77872;SDS011;67068;52.116;4.440;2023-09-07T05:20:43;7.60;;;3.38;;
77872;SDS011;67068;52.116;4.440;2023-09-07T05:23:10;7.95;;;3.20;;
77872;SDS011;67068;52.116;4.440;2023-09-07T05:25:42;8.23;;;3.45;;
77872;SDS011;67068;52.116;4.440;2023-09-07T05:28:07;8.88;;;3.90;;
77872;SDS011;67068;52.116;4.440;2023-09-07T05:30:32;8.40;;;3.70;;
77872;SDS011;67068;52.116;4.440;2023-09-07T05:32:58;8.63;;;3.70;;
77872;SDS011;67068;52.116;4.440;2023-09-07T05:35:23;8.47;;;3.60;;
77872;SDS011;67068;52.116;4.440;2023-09-07T05:37:52;8.80;;;3.50;;
77872;SDS011;67068;52.116;4.440;2023-09-07T05:40:18;8.48;;;3.33;;
77872;SDS011;67068;52.116;4.440;2023-09-07T05:42:43;9.43;;;3.50;;
77872;SDS011;67068;52.116;4.440;2023-09-07T05:45:08;7.80;;;3.37;;
77872;SDS011;67068;52.116;4.440;2023-09-07T05:47:33;8.93;;;3.60;;
77872;SDS011;67068;52.116;4.440;2023-09-07T05:49:58;8.30;;;3.50;;
77872;SDS011;67068;52.116;4.440;2023-09-07T05:52:24;7.57;;;3.27;;
77872;SDS011;67068;52.116;4.440;2023-09-07T05:54:49;7.70;;;3.20;;
77872;SDS011;67068;52.116;4.440;2023-09-07T05:57:14;8.20;;;3.80;;
77872;SDS011;67068;52.116;4.440;2023-09-07T05:59:39;7.80;;;3.13;;
77872;SDS011;67068;52.116;4.440;2023-09-07T06:02:05;7.57;;;3.07;;
77872;SDS011;67068;52.116;4.440;2023-09-07T06:04:30;7.93;;;3.20;;
77872;SDS011;67068;52.116;4.440;2023-09-07T06:06:55;8.23;;;3.47;;
77872;SDS011;67068;52.116;4.440;2023-09-07T06:09:20;8.33;;;3.40;;
77872;SDS011;67068;52.116;4.440;2023-09-07T06:11:45;8.63;;;3.80;;
77872;SDS011;67068;52.116;4.440;2023-09-07T06:14:11;8.67;;;3.97;;
77872;SDS011;67068;52.116;4.440;2023-09-07T06:16:36;8.93;;;3.88;;
77872;SDS011;67068;52.116;4.440;2023-09-07T06:19:02;8.63;;;3.60;;
77872;SDS011;67068;52.116;4.440;2023-09-07T06:21:27;8.00;;;3.43;;
77872;SDS011;67068;52.116;4.440;2023-09-07T06:23:52;7.80;;;3.53;;
77872;SDS011;67068;52.116;4.440;2023-09-07T06:26:17;8.93;;;3.07;;
77872;SDS011;67068;52.116;4.440;2023-09-07T06:28:44;7.97;;;3.30;;
77872;SDS011;67068;52.116;4.440;2023-09-07T06:31:09;8.90;;;4.00;;
77872;SDS011;67068;52.116;4.440;2023-09-07T06:33:34;8.90;;;3.57;;
77872;SDS011;67068;52.116;4.440;2023-09-07T06:36:00;8.23;;;3.37;;
77872;SDS011;67068;52.116;4.440;2023-09-07T06:38:27;17.15;;;9.50;;
77872;SDS011;67068;52.116;4.440;2023-09-07T06:40:52;17.73;;;10.53;;
77872;SDS011;67068;52.116;4.440;2023-09-07T06:43:17;19.10;;;10.70;;
77872;SDS011;67068;52.116;4.440;2023-09-07T06:45:42;19.63;;;11.57;;
77872;SDS011;67068;52.116;4.440;2023-09-07T06:48:08;19.13;;;11.33;;
77872;SDS011;67068;52.116;4.440;2023-09-07T06:50:33;17.50;;;11.20;;
77872;SDS011;67068;52.116;4.440;2023-09-07T06:52:58;23.90;;;11.85;;
77872;SDS011;67068;52.116;4.440;2023-09-07T06:55:23;19.13;;;11.43;;
77872;SDS011;67068;52.116;4.440;2023-09-07T06:57:49;20.37;;;11.27;;
77872;SDS011;67068;52.116;4.440;2023-09-07T07:00:14;20.48;;;11.00;;
77872;SDS011;67068;52.116;4.440;2023-09-07T07:02:40;19.95;;;11.77;;
77872;SDS011;67068;52.116;4.440;2023-09-07T07:05:05;17.60;;;11.20;;
77872;SDS011;67068;52.116;4.440;2023-09-07T07:07:30;19.02;;;11.23;;
77872;SDS011;67068;52.116;4.440;2023-09-07T07:09:56;19.17;;;11.40;;
77872;SDS011;67068;52.116;4.440;2023-09-07T07:12:21;18.92;;;11.38;;
77872;SDS011;67068;52.116;4.440;2023-09-07T07:14:46;17.43;;;10.90;;
77872;SDS011;67068;52.116;4.440;2023-09-07T07:17:12;18.87;;;11.23;;
77872;SDS011;67068;52.116;4.440;2023-09-07T07:19:37;16.63;;;10.40;;
77872;SDS011;67068;52.116;4.440;2023-09-07T07:22:03;21.63;;;11.23;;
77872;SDS011;67068;52.116;4.440;2023-09-07T07:24:28;18.17;;;10.82;;
77872;SDS011;67068;52.116;4.440;2023-09-07T07:26:53;17.53;;;10.17;;
77872;SDS011;67068;52.116;4.440;2023-09-07T07:29:19;18.23;;;10.63;;
77872;SDS011;67068;52.116;4.440;2023-09-07T07:31:44;19.07;;;10.73;;
77872;SDS011;67068;52.116;4.440;2023-09-07T07:34:09;18.17;;;10.83;;
77872;SDS011;67068;52.116;4.440;2023-09-07T07:36:35;16.73;;;10.50;;
77872;SDS011;67068;52.116;4.440;2023-09-07T07:39:00;18.33;;;11.32;;
77872;SDS011;67068;52.116;4.440;2023-09-07T07:41:26;18.17;;;9.77;;
77872;SDS011;67068;52.116;4.440;2023-09-07T07:43:51;16.77;;;10.13;;
77872;SDS011;67068;52.116;4.440;2023-09-07T07:46:16;17.17;;;10.43;;
77872;SDS011;67068;52.116;4.440;2023-09-07T07:48:41;22.93;;;11.23;;
77872;SDS011;67068;52.116;4.440;2023-09-07T07:51:07;17.55;;;10.15;;
77872;SDS011;67068;52.116;4.440;2023-09-07T07:53:32;17.47;;;10.87;;
77872;SDS011;67068;52.116;4.440;2023-09-07T07:55:57;16.77;;;10.03;;
77872;SDS011;67068;52.116;4.440;2023-09-07T07:58:22;15.47;;;8.60;;
77872;SDS011;67068;52.116;4.440;2023-09-07T08:00:48;15.20;;;7.53;;
77872;SDS011;67068;52.116;4.440;2023-09-07T08:03:14;18.83;;;9.65;;
77872;SDS011;67068;52.116;4.440;2023-09-07T08:05:39;17.88;;;10.52;;
77872;SDS011;67068;52.116;4.440;2023-09-07T08:08:05;19.00;;;11.40;;
77872;SDS011;67068;52.116;4.440;2023-09-07T08:10:33;17.65;;;11.00;;
77872;SDS011;67068;52.116;4.440;2023-09-07T08:12:58;17.17;;;9.77;;
77872;SDS011;67068;52.116;4.440;2023-09-07T08:15:23;17.10;;;9.57;;
77872;SDS011;67068;52.116;4.440;2023-09-07T08:17:50;18.83;;;9.75;;
77872;SDS011;67068;52.116;4.440;2023-09-07T08:20:15;15.38;;;9.30;;
77872;SDS011;67068;52.116;4.440;2023-09-07T08:22:41;17.77;;;9.52;;
77872;SDS011;67068;52.116;4.440;2023-09-07T08:25:10;15.48;;;9.13;;
77872;SDS011;67068;52.116;4.440;2023-09-07T08:27:36;16.63;;;8.60;;
77872;SDS011;67068;52.116;4.440;2023-09-07T08:30:01;15.67;;;8.50;;
77872;SDS011;67068;52.116;4.440;2023-09-07T08:32:28;14.70;;;8.38;;
77872;SDS011;67068;52.116;4.440;2023-09-07T08:34:55;16.13;;;8.82;;
77872;SDS011;67068;52.116;4.440;2023-09-07T08:37:21;14.93;;;7.47;;
77872;SDS011;67068;52.116;4.440;2023-09-07T08:39:46;17.10;;;8.20;;
77872;SDS011;67068;52.116;4.440;2023-09-07T08:42:12;15.60;;;9.13;;
77872;SDS011;67068;52.116;4.440;2023-09-07T08:44:37;14.03;;;8.63;;
77872;SDS011;67068;52.116;4.440;2023-09-07T08:47:04;14.60;;;7.93;;
77872;SDS011;67068;52.116;4.440;2023-09-07T08:49:29;16.88;;;8.85;;
77872;SDS011;67068;52.116;4.440;2023-09-07T08:51:57;13.73;;;6.35;;
77872;SDS011;67068;52.116;4.440;2023-09-07T08:54:23;14.10;;;6.30;;
77872;SDS011;67068;52.116;4.440;2023-09-07T08:56:49;11.32;;;5.00;;
77872;SDS011;67068;52.116;4.440;2023-09-07T08:59:15;10.52;;;5.28;;
77872;SDS011;67068;52.116;4.440;2023-09-07T09:01:40;10.53;;;4.67;;
77872;SDS011;67068;52.116;4.440;2023-09-07T09:04:06;11.10;;;4.77;;
77872;SDS011;67068;52.116;4.440;2023-09-07T09:06:32;16.90;;;8.23;;
77872;SDS011;67068;52.116;4.440;2023-09-07T09:08:57;22.13;;;8.37;;
77872;SDS011;67068;52.116;4.440;2023-09-07T09:11:23;16.57;;;8.17;;
77872;SDS011;67068;52.116;4.440;2023-09-07T09:13:49;14.60;;;8.20;;
77872;SDS011;67068;52.116;4.440;2023-09-07T09:16:15;16.80;;;7.95;;
77872;SDS011;67068;52.116;4.440;2023-09-07T09:18:50;17.43;;;7.00;;
77872;SDS011;67068;52.116;4.440;2023-09-07T09:21:17;15.05;;;7.10;;
77872;SDS011;67068;52.116;4.440;2023-09-07T09:23:43;14.50;;;7.03;;
77872;SDS011;67068;52.116;4.440;2023-09-07T09:26:08;13.88;;;7.22;;
77872;SDS011;67068;52.116;4.440;2023-09-07T09:28:34;13.63;;;5.40;;
77872;SDS011;67068;52.116;4.440;2023-09-07T09:30:59;12.05;;;5.50;;
77872;SDS011;67068;52.116;4.440;2023-09-07T09:33:25;10.45;;;4.72;;
77872;SDS011;67068;52.116;4.440;2023-09-07T09:35:50;10.50;;;4.55;;
77872;SDS011;67068;52.116;4.440;2023-09-07T09:38:16;11.82;;;4.95;;
77872;SDS011;67068;52.116;4.440;2023-09-07T09:40:42;9.52;;;4.28;;
77872;SDS011;67068;52.116;4.440;2023-09-07T09:43:07;10.20;;;4.87;;
77872;SDS011;67068;52.116;4.440;2023-09-07T09:45:33;10.50;;;4.63;;
77872;SDS011;67068;52.116;4.440;2023-09-07T09:48:00;11.05;;;4.47;;
77872;SDS011;67068;52.116;4.440;2023-09-07T09:50:26;14.70;;;6.82;;
77872;SDS011;67068;52.116;4.440;2023-09-07T09:52:54;14.32;;;7.22;;
77872;SDS011;67068;52.116;4.440;2023-09-07T09:55:21;15.82;;;7.30;;
77872;SDS011;67068;52.116;4.440;2023-09-07T09:57:46;12.60;;;7.10;;
77872;SDS011;67068;52.116;4.440;2023-09-07T10:00:12;14.13;;;6.37;;
77872;SDS011;67068;52.116;4.440;2023-09-07T10:03:10;89.05;;;13.23;;
77872;SDS011;67068;52.116;4.440;2023-09-07T10:05:36;32.92;;;7.95;;
77872;SDS011;67068;52.116;4.440;2023-09-07T10:08:02;49.38;;;7.55;;
77872;SDS011;67068;52.116;4.440;2023-09-07T10:10:31;15.48;;;5.47;;
77872;SDS011;67068;52.116;4.440;2023-09-07T10:12:58;13.05;;;5.63;;
77872;SDS011;67068;52.116;4.440;2023-09-07T10:15:24;12.30;;;4.87;;
77872;SDS011;67068;52.116;4.440;2023-09-07T10:17:50;13.07;;;5.63;;
77872;SDS011;67068;52.116;4.440;2023-09-07T10:20:27;13.65;;;5.25;;
77872;SDS011;67068;52.116;4.440;2023-09-07T10:23:01;24.80;;;5.53;;
77872;SDS011;67068;52.116;4.440;2023-09-07T10:25:27;18.25;;;5.75;;
77872;SDS011;67068;52.116;4.440;2023-09-07T10:27:54;12.02;;;4.70;;
77872;SDS011;67068;52.116;4.440;2023-09-07T10:30:20;12.50;;;4.17;;
77872;SDS011;67068;52.116;4.440;2023-09-07T10:32:48;12.23;;;4.40;;
77872;SDS011;67068;52.116;4.440;2023-09-07T10:35:15;13.90;;;4.72;;
77872;SDS011;67068;52.116;4.440;2023-09-07T10:37:41;10.57;;;3.55;;
77872;SDS011;67068;52.116;4.440;2023-09-07T10:40:06;13.38;;;4.00;;
77872;SDS011;67068;52.116;4.440;2023-09-07T10:42:36;10.68;;;3.90;;
77872;SDS011;67068;52.116;4.440;2023-09-07T10:45:08;12.30;;;4.00;;
77872;SDS011;67068;52.116;4.440;2023-09-07T10:47:34;12.00;;;4.05;;
77872;SDS011;67068;52.116;4.440;2023-09-07T10:50:00;9.37;;;3.67;;
77872;SDS011;67068;52.116;4.440;2023-09-07T10:52:25;8.20;;;3.40;;
77872;SDS011;67068;52.116;4.440;2023-09-07T10:54:56;11.83;;;3.80;;
77872;SDS011;67068;52.116;4.440;2023-09-07T10:57:22;10.02;;;3.53;;
77872;SDS011;67068;52.116;4.440;2023-09-07T10:59:47;7.83;;;3.50;;
77872;SDS011;67068;52.116;4.440;2023-09-07T11:02:13;10.13;;;3.60;;
77872;SDS011;67068;52.116;4.440;2023-09-07T11:04:40;9.13;;;3.35;;
77872;SDS011;67068;52.116;4.440;2023-09-07T11:07:05;8.77;;;3.17;;
77872;SDS011;67068;52.116;4.440;2023-09-07T11:09:30;11.15;;;3.78;;
77872;SDS011;67068;52.116;4.440;2023-09-07T11:11:56;10.88;;;3.50;;
77872;SDS011;67068;52.116;4.440;2023-09-07T11:14:21;8.57;;;3.37;;
77872;SDS011;67068;52.116;4.440;2023-09-07T11:16:46;9.67;;;4.07;;
77872;SDS011;67068;52.116;4.440;2023-09-07T11:19:12;8.85;;;3.50;;
77872;SDS011;67068;52.116;4.440;2023-09-07T11:21:40;9.68;;;3.58;;
77872;SDS011;67068;52.116;4.440;2023-09-07T11:24:05;9.63;;;3.20;;
77872;SDS011;67068;52.116;4.440;2023-09-07T11:26:48;9.07;;;3.50;;
77872;SDS011;67068;52.116;4.440;2023-09-07T11:29:17;9.40;;;3.15;;
77872;SDS011;67068;52.116;4.440;2023-09-07T11:31:44;8.80;;;3.42;;
77872;SDS011;67068;52.116;4.440;2023-09-07T11:34:09;8.63;;;3.47;;
77872;SDS011;67068;52.116;4.440;2023-09-07T11:36:35;9.48;;;3.45;;
77872;SDS011;67068;52.116;4.440;2023-09-07T11:39:01;9.87;;;3.53;;
77872;SDS011;67068;52.116;4.440;2023-09-07T11:41:30;9.77;;;3.35;;
77872;SDS011;67068;52.116;4.440;2023-09-07T11:43:56;9.80;;;3.90;;
77872;SDS011;67068;52.116;4.440;2023-09-07T11:46:21;8.43;;;3.37;;
77872;SDS011;67068;52.116;4.440;2023-09-07T11:48:46;10.48;;;3.05;;
77872;SDS011;67068;52.116;4.440;2023-09-07T11:51:11;9.30;;;3.40;;
77872;SDS011;67068;52.116;4.440;2023-09-07T11:53:37;10.57;;;3.43;;
77872;SDS011;67068;52.116;4.440;2023-09-07T11:56:02;13.33;;;3.30;;
77872;SDS011;67068;52.116;4.440;2023-09-07T11:58:27;12.03;;;4.00;;
77872;SDS011;67068;52.116;4.440;2023-09-07T12:00:53;11.38;;;3.67;;
77872;SDS011;67068;52.116;4.440;2023-09-07T12:03:18;10.52;;;3.47;;
77872;SDS011;67068;52.116;4.440;2023-09-07T12:05:43;12.47;;;3.47;;
77872;SDS011;67068;52.116;4.440;2023-09-07T12:08:09;11.10;;;3.10;;
77872;SDS011;67068;52.116;4.440;2023-09-07T12:10:34;12.17;;;3.73;;
77872;SDS011;67068;52.116;4.440;2023-09-07T12:12:59;11.47;;;3.40;;
77872;SDS011;67068;52.116;4.440;2023-09-07T12:15:25;10.83;;;3.07;;
77872;SDS011;67068;52.116;4.440;2023-09-07T12:17:50;9.73;;;3.70;;
77872;SDS011;67068;52.116;4.440;2023-09-07T12:20:19;8.82;;;3.25;;
77872;SDS011;67068;52.116;4.440;2023-09-07T12:22:44;9.83;;;3.07;;
77872;SDS011;67068;52.116;4.440;2023-09-07T12:25:09;8.70;;;3.47;;
77872;SDS011;67068;52.116;4.440;2023-09-07T12:27:37;9.30;;;3.10;;
77872;SDS011;67068;52.116;4.440;2023-09-07T12:30:02;10.47;;;3.37;;
77872;SDS011;67068;52.116;4.440;2023-09-07T12:32:31;8.75;;;3.17;;
77872;SDS011;67068;52.116;4.440;2023-09-07T12:34:56;8.98;;;3.47;;
77872;SDS011;67068;52.116;4.440;2023-09-07T12:37:22;10.47;;;3.17;;
77872;SDS011;67068;52.116;4.440;2023-09-07T12:39:48;14.65;;;4.10;;
77872;SDS011;67068;52.116;4.440;2023-09-07T12:42:14;9.73;;;4.15;;
77872;SDS011;67068;52.116;4.440;2023-09-07T12:44:39;13.43;;;3.95;;
77872;SDS011;67068;52.116;4.440;2023-09-07T12:47:04;10.63;;;4.03;;
77872;SDS011;67068;52.116;4.440;2023-09-07T12:49:30;8.50;;;3.63;;
77872;SDS011;67068;52.116;4.440;2023-09-07T12:51:55;9.90;;;4.20;;
77872;SDS011;67068;52.116;4.440;2023-09-07T12:54:20;9.00;;;3.83;;
77872;SDS011;67068;52.116;4.440;2023-09-07T12:56:45;10.23;;;4.10;;
77872;SDS011;67068;52.116;4.440;2023-09-07T12:59:11;9.57;;;3.95;;
77872;SDS011;67068;52.116;4.440;2023-09-07T13:01:36;7.73;;;3.33;;
77872;SDS011;67068;52.116;4.440;2023-09-07T13:04:01;9.20;;;3.83;;
77872;SDS011;67068;52.116;4.440;2023-09-07T13:06:27;9.02;;;3.47;;
77872;SDS011;67068;52.116;4.440;2023-09-07T13:08:53;8.63;;;3.57;;
77872;SDS011;67068;52.116;4.440;2023-09-07T13:11:18;9.93;;;3.63;;
77872;SDS011;67068;52.116;4.440;2023-09-07T13:13:43;9.70;;;3.73;;
77872;SDS011;67068;52.116;4.440;2023-09-07T13:16:08;8.37;;;3.50;;
77872;SDS011;67068;52.116;4.440;2023-09-07T13:18:34;8.93;;;3.70;;
77872;SDS011;67068;52.116;4.440;2023-09-07T13:20:59;10.23;;;3.53;;
77872;SDS011;67068;52.116;4.440;2023-09-07T13:23:26;9.13;;;3.70;;
77872;SDS011;67068;52.116;4.440;2023-09-07T13:25:51;8.25;;;3.55;;
77872;SDS011;67068;52.116;4.440;2023-09-07T13:28:16;8.67;;;3.77;;
77872;SDS011;67068;52.116;4.440;2023-09-07T13:30:42;8.00;;;3.70;;
77872;SDS011;67068;52.116;4.440;2023-09-07T13:33:07;9.63;;;4.00;;
77872;SDS011;67068;52.116;4.440;2023-09-07T13:35:33;8.95;;;3.88;;
77872;SDS011;67068;52.116;4.440;2023-09-07T13:37:58;9.17;;;3.57;;
77872;SDS011;67068;52.116;4.440;2023-09-07T13:40:23;9.57;;;3.73;;
77872;SDS011;67068;52.116;4.440;2023-09-07T13:42:49;8.38;;;3.38;;
77872;SDS011;67068;52.116;4.440;2023-09-07T13:45:14;9.60;;;3.57;;
77872;SDS011;67068;52.116;4.440;2023-09-07T13:47:39;11.50;;;3.87;;
77872;SDS011;67068;52.116;4.440;2023-09-07T13:50:05;11.77;;;3.93;;
77872;SDS011;67068;52.116;4.440;2023-09-07T13:52:30;10.52;;;3.30;;
77872;SDS011;67068;52.116;4.440;2023-09-07T13:54:55;8.70;;;3.83;;
77872;SDS011;67068;52.116;4.440;2023-09-07T13:57:21;8.60;;;3.20;;
77872;SDS011;67068;52.116;4.440;2023-09-07T13:59:46;10.67;;;3.70;;
77872;SDS011;67068;52.116;4.440;2023-09-07T14:02:11;7.93;;;3.30;;
77872;SDS011;67068;52.116;4.440;2023-09-07T14:04:36;8.73;;;3.20;;
77872;SDS011;67068;52.116;4.440;2023-09-07T14:07:02;9.03;;;3.53;;
77872;SDS011;67068;52.116;4.440;2023-09-07T14:09:27;9.60;;;3.30;;
77872;SDS011;67068;52.116;4.440;2023-09-07T14:11:52;8.77;;;3.70;;
77872;SDS011;67068;52.116;4.440;2023-09-07T14:14:17;8.97;;;3.70;;
77872;SDS011;67068;52.116;4.440;2023-09-07T14:16:43;9.55;;;3.40;;
77872;SDS011;67068;52.116;4.440;2023-09-07T14:19:08;8.77;;;3.87;;
77872;SDS011;67068;52.116;4.440;2023-09-07T14:21:33;9.30;;;3.37;;
77872;SDS011;67068;52.116;4.440;2023-09-07T14:23:58;9.80;;;3.90;;
77872;SDS011;67068;52.116;4.440;2023-09-07T14:26:24;9.17;;;3.80;;
77872;SDS011;67068;52.116;4.440;2023-09-07T14:28:49;10.07;;;3.43;;
77872;SDS011;67068;52.116;4.440;2023-09-07T14:31:15;8.70;;;3.70;;